Time;durP1;ratioP1;P1;durP2;ratioP2;P2;SDS_P1;SDS_P2;PMS_P1;PMS_P2;Temp;Humidity;BMP_temperature;BMP_pressure;BME280_temperature;BME280_humidity;BME280_pressure;Samples;Min_cycle;Max_cycle;Signal;HPM_P1;HPM_P2
2023/01/31 00:00:08;;;;;;;5.78;1.25;;;;;;;1.97;100.00;102202.75;4957183;28;20039;-73
2023/01/31 00:02:34;;;;;;;10.13;1.75;;;;;;;1.95;100.00;102188.81;4945292;28;20502;-73
2023/01/31 00:04:59;;;;;;;4.88;1.08;;;;;;;1.92;100.00;102196.63;4944085;28;21704;-73
2023/01/31 00:07:25;;;;;;;8.25;1.42;;;;;;;1.90;100.00;102206.16;4937174;28;20042;-74
2023/01/31 00:09:51;;;;;;;6.25;1.40;;;;;;;1.88;100.00;102197.41;4943687;28;20038;-74
2023/01/31 00:12:16;;;;;;;5.03;1.30;;;;;;;1.88;100.00;102189.59;4937301;28;20049;-73
2023/01/31 00:14:42;;;;;;;6.97;1.17;;;;;;;1.86;100.00;102196.53;4937281;28;20046;-74
2023/01/31 00:17:07;;;;;;;6.50;1.33;;;;;;;1.84;100.00;102208.66;4937798;28;20050;-74
2023/01/31 00:19:33;;;;;;;7.70;1.90;;;;;;;1.81;100.00;102188.66;4941154;28;20102;-73
2023/01/31 00:21:59;;;;;;;6.13;1.55;;;;;;;1.80;100.00;102186.00;4937003;28;20110;-74
2023/01/31 00:24:24;;;;;;;6.82;1.30;;;;;;;1.79;100.00;102189.47;4940017;28;20455;-74
2023/01/31 00:26:55;;;;;;;11.40;1.40;;;;;;;1.79;100.00;102184.25;4940724;28;20038;-73
2023/01/31 00:29:24;;;;;;;7.15;1.60;;;;;;;1.78;100.00;102169.44;4936354;28;20088;-73
2023/01/31 00:31:50;;;;;;;8.10;1.83;;;;;;;1.76;100.00;102172.03;4918149;28;20043;-73
2023/01/31 00:34:16;;;;;;;5.72;1.25;;;;;;;1.76;100.00;102170.28;4937273;28;20572;-73
2023/01/31 00:36:41;;;;;;;8.63;1.75;;;;;;;1.74;100.00;102153.72;4938757;28;22266;-73
2023/01/31 00:39:08;;;;;;;7.47;1.27;;;;;;;1.75;100.00;102155.47;4918360;28;20050;-73
2023/01/31 00:41:35;;;;;;;4.55;1.20;;;;;;;1.75;100.00;102149.38;4953004;28;20035;-73
2023/01/31 00:44:01;;;;;;;7.03;1.33;;;;;;;1.74;100.00;102145.88;4955261;28;20027;-72
2023/01/31 00:46:26;;;;;;;4.85;1.20;;;;;;;1.73;100.00;102149.38;4936580;28;20097;-72
2023/01/31 00:48:52;;;;;;;8.98;1.45;;;;;;;1.74;100.00;102156.34;4938231;28;20055;-72
2023/01/31 00:51:19;;;;;;;6.57;1.40;;;;;;;1.74;100.00;102152.88;4938543;28;20038;-73
2023/01/31 00:53:45;;;;;;;10.45;1.48;;;;;;;1.74;100.00;102161.56;4933707;28;20110;-73
2023/01/31 00:56:14;;;;;;;10.27;1.95;;;;;;;1.76;100.00;102162.44;4934962;28;20027;-74
2023/01/31 00:58:42;;;;;;;11.88;1.63;;;;;;;1.76;100.00;102157.22;4920796;28;20101;-73
2023/01/31 01:01:16;;;;;;;6.28;1.40;;;;;;;1.79;100.00;102156.38;4950196;28;20560;-74
2023/01/31 01:03:43;;;;;;;7.72;1.50;;;;;;;1.79;100.00;102153.78;4937264;28;20030;-74
2023/01/31 01:06:09;;;;;;;6.60;1.20;;;;;;;1.83;100.00;102171.25;4934683;28;20093;-74
2023/01/31 01:08:35;;;;;;;8.13;1.50;;;;;;;1.85;100.00;102159.06;4940227;28;20532;-74
2023/01/31 01:11:08;;;;;;;7.50;1.63;;;;;;;1.88;100.00;102158.25;4935981;28;20206;-74
2023/01/31 01:13:34;;;;;;;6.60;1.35;;;;;;;1.90;100.00;102153.91;4937689;28;20458;-74
2023/01/31 01:16:09;;;;;;;10.18;2.10;;;;;;;1.92;100.00;102156.53;4937712;28;20880;-74
2023/01/31 01:18:35;;;;;;;6.30;1.40;;;;;;;1.97;100.00;102152.25;4935357;28;20050;-74
2023/01/31 01:21:08;;;;;;;6.88;1.35;;;;;;;1.98;100.00;102154.00;4939179;28;20042;-74
2023/01/31 01:23:34;;;;;;;;;;;;;;;1.99;100.00;102154.03;4937647;28;20034;-74
2023/01/31 01:25:59;;;;;;;2.95;1.83;;;;;;;1.99;100.00;102148.81;4937811;28;19930;-74
2023/01/31 01:28:25;;;;;;;7.78;1.40;;;;;;;2.02;100.00;102146.22;4952415;28;20443;-74
2023/01/31 01:30:50;;;;;;;4.18;1.33;;;;;;;2.05;100.00;102134.91;4936763;28;20775;-74
2023/01/31 01:33:16;;;;;;;5.28;1.30;;;;;;;2.08;100.00;102134.06;4951778;28;20944;-74
2023/01/31 01:35:41;;;;;;;4.82;1.70;;;;;;;2.11;100.00;102126.25;4952799;28;20031;-74
2023/01/31 01:38:07;;;;;;;7.15;1.50;;;;;;;2.11;100.00;102127.16;4936298;28;20062;-71
2023/01/31 01:40:36;;;;;;;3.67;1.00;;;;;;;2.14;100.00;102128.91;4954235;28;20046;-72
2023/01/31 01:43:02;;;;;;;6.53;1.23;;;;;;;2.15;100.00;102118.50;4936608;28;20355;-72
2023/01/31 01:45:28;;;;;;;4.28;0.95;;;;;;;2.15;100.00;102112.38;4922038;28;20457;-71
2023/01/31 01:47:57;;;;;;;5.18;1.10;;;;;;;2.17;100.00;102103.69;4934181;28;20054;-72
2023/01/31 01:50:45;;;;;;;3.80;1.48;;;;;;;2.21;100.00;102103.72;4944797;28;20039;-72
2023/01/31 01:53:22;;;;;;;8.40;1.45;;;;;;;2.24;100.00;102101.16;4939591;28;21537;-72
2023/01/31 01:55:51;;;;;;;16.17;1.65;;;;;;;2.23;100.00;102091.56;4941262;28;20564;-73
2023/01/31 01:58:30;;;;;;;13.25;1.75;;;;;;;2.27;100.00;102090.72;4937009;28;20138;-73
2023/01/31 02:00:56;;;;;;;7.63;1.40;;;;;;;2.28;100.00;102088.13;4943328;28;20625;-73
2023/01/31 02:03:22;;;;;;;11.60;1.98;;;;;;;2.29;100.00;102087.25;4943652;28;20058;-73
2023/01/31 02:06:06;;;;;;;3.38;1.20;;;;;;;2.30;100.00;102089.00;4954971;28;22516;-73
2023/01/31 02:08:35;;;;;;;2.55;1.52;;;;;;;2.34;100.00;102089.03;4944570;28;20050;-73
2023/01/31 02:11:09;;;;;;;7.38;1.35;;;;;;;2.36;100.00;102092.53;4943325;28;20038;-73
2023/01/31 02:13:36;;;;;;;9.88;1.45;;;;;;;2.38;100.00;102080.34;4942555;28;20884;-73
2023/01/31 02:16:02;;;;;;;6.65;1.10;;;;;;;2.40;100.00;102078.66;4937449;28;20217;-73
2023/01/31 02:18:28;;;;;;;9.95;1.85;;;;;;;2.43;100.00;102092.63;4937882;28;20085;-73
2023/01/31 02:21:14;;;;;;;10.55;1.52;;;;;;;2.46;100.00;102093.50;4921695;28;20042;-73
2023/01/31 02:24:18;;;;;;;9.82;1.48;;;;;;;2.50;100.00;102090.06;4940891;28;20541;-71
2023/01/31 02:27:17;;;;;;;8.88;1.55;;;;;;;2.51;100.00;102092.66;4952029;28;20086;-72
2023/01/31 02:30:19;;;;;;;6.60;1.50;;;;;;;2.52;100.00;102089.22;4937418;28;20401;-71
2023/01/31 02:33:12;;;;;;;3.30;1.60;;;;;;;2.51;100.00;102087.44;4938001;28;20035;-72
2023/01/31 02:35:49;;;;;;;8.38;1.40;;;;;;;2.51;100.00;102087.44;4937206;28;20045;-72
2023/01/31 02:38:21;;;;;;;7.20;1.17;;;;;;;2.50;100.00;102079.59;4938271;28;20461;-72
2023/01/31 02:41:12;;;;;;;8.23;1.02;;;;;;;2.50;100.00;102071.75;4938987;28;20122;-72
2023/01/31 02:46:53;;;;;;;7.75;1.50;;;;;;;2.48;100.00;102069.13;4938967;28;20122;-73
2023/01/31 02:49:38;;;;;;;5.70;1.45;;;;;;;2.49;100.00;102070.88;4935898;28;20039;-72
2023/01/31 02:52:37;;;;;;;4.43;1.40;;;;;;;2.50;100.00;102061.28;4950322;28;20043;-73
2023/01/31 02:58:02;;;;;;;6.93;1.40;;;;;;;2.55;100.00;102054.34;4949708;28;20043;-72
2023/01/31 03:00:30;;;;;;;2.42;1.15;;;;;;;2.55;100.00;102063.06;4932390;28;20049;-72
2023/01/31 03:02:55;;;;;;;7.00;1.33;;;;;;;2.58;100.00;102060.47;4934115;28;20189;-72
2023/01/31 03:05:21;;;;;;;5.38;1.48;;;;;;;2.62;100.00;102053.50;4935953;28;20047;-72
2023/01/31 03:07:54;;;;;;;7.03;1.25;;;;;;;2.67;100.00;102041.34;4937150;28;20050;-72
2023/01/31 03:10:32;;;;;;;7.22;1.33;;;;;;;2.74;100.00;102059.72;4937920;28;20045;-73
2023/01/31 03:13:33;;;;;;;7.15;1.48;;;;;;;2.78;100.00;102051.88;4937730;28;20050;-73
2023/01/31 03:19:20;;;;;;;3.13;1.08;;;;;;;2.87;100.00;102055.44;4941772;28;20058;-73
2023/01/31 03:21:59;;;;;;;6.78;1.45;;;;;;;2.90;100.00;102047.59;4938300;28;20038;-73
2023/01/31 03:24:25;;;;;;;7.95;1.80;;;;;;;2.93;100.00;102047.59;4939527;28;20112;-73
2023/01/31 03:26:56;;;;;;;10.25;2.28;;;;;;;2.98;100.00;102040.66;4923889;28;20073;-72
2023/01/31 03:29:23;;;;;;;3.58;1.20;;;;;;;2.98;100.00;102038.94;4938432;28;20483;-73
2023/01/31 03:31:54;;;;;;;3.10;1.40;;;;;;;3.02;100.00;102031.97;4934165;28;20110;-72
2023/01/31 03:34:20;;;;;;;8.27;1.50;;;;;;;3.07;100.00;102024.16;4935682;28;20039;-73
2023/01/31 03:36:48;;;;;;;12.25;1.70;;;;;;;3.10;100.00;102019.81;4941032;28;20727;-73
2023/01/31 03:39:18;;;;;;;6.07;1.77;;;;;;;3.12;100.00;102004.13;4939994;28;20046;-72
2023/01/31 03:42:01;;;;;;;6.60;1.48;;;;;;;3.16;100.00;101999.78;4940042;28;20061;-72
2023/01/31 03:44:35;;;;;;;13.07;1.70;;;;;;;3.19;100.00;101994.53;4939349;28;20060;-71
2023/01/31 03:47:05;;;;;;;10.73;1.60;;;;;;;3.20;100.00;101975.34;4936679;28;20513;-72
2023/01/31 03:49:33;;;;;;;7.88;1.80;;;;;;;3.24;100.00;101974.50;4946028;28;20047;-72
2023/01/31 03:52:05;;;;;;;6.78;1.50;;;;;;;3.26;100.00;101971.00;4943782;28;20502;-72
2023/01/31 03:54:35;;;;;;;10.43;1.80;;;;;;;3.27;100.00;101969.25;4938029;28;20042;-72
2023/01/31 03:57:10;;;;;;;6.70;1.70;;;;;;;3.26;100.00;101963.16;4960467;28;20047;-72
2023/01/31 03:59:37;;;;;;;9.30;2.08;;;;;;;3.29;100.00;101959.69;4946407;28;20215;-72
2023/01/31 04:02:05;;;;;;;12.80;2.15;;;;;;;3.32;100.00;101967.53;4942251;28;20813;-72
2023/01/31 04:04:36;;;;;;;12.70;2.13;;;;;;;3.36;100.00;101968.41;4945575;28;20038;-72
2023/01/31 04:07:01;;;;;;;7.18;2.00;;;;;;;3.37;100.00;101964.91;4945949;28;20494;-72
2023/01/31 04:09:27;;;;;;;4.95;1.80;;;;;;;3.39;100.00;101964.06;4943405;28;20081;-72
2023/01/31 04:11:53;;;;;;;8.85;2.00;;;;;;;3.41;100.00;101966.69;4944514;28;20039;-73
2023/01/31 04:14:19;;;;;;;8.18;2.03;;;;;;;3.42;100.00;101963.19;4955558;28;20806;-72
2023/01/31 04:16:44;;;;;;;15.13;2.30;;;;;;;3.45;100.00;101957.09;4940662;28;21953;-72
2023/01/31 04:19:13;;;;;;;7.38;2.35;;;;;;;3.47;100.00;101955.34;4938450;28;20100;-72
2023/01/31 04:21:38;;;;;;;11.38;2.40;;;;;;;3.47;100.00;101940.53;4940516;28;20070;-73
2023/01/31 04:24:04;;;;;;;13.38;2.00;;;;;;;3.50;100.00;101944.91;4936628;28;20038;-73
2023/01/31 04:26:30;;;;;;;14.10;2.47;;;;;;;3.50;100.00;101945.75;4937321;28;20746;-72
2023/01/31 04:28:55;;;;;;;9.75;2.38;;;;;;;3.51;100.00;101936.16;4937939;28;20411;-72
2023/01/31 04:31:21;;;;;;;11.00;2.13;;;;;;;3.53;100.00;101927.44;4938950;28;20491;-72
2023/01/31 04:33:46;;;;;;;14.05;2.10;;;;;;;3.52;100.00;101930.03;4937503;28;20508;-73
2023/01/31 04:36:12;;;;;;;10.20;2.28;;;;;;;3.57;100.00;101924.81;4939150;28;20544;-72
2023/01/31 04:38:38;;;;;;;12.88;2.28;;;;;;;3.56;100.00;101923.94;4939544;28;20046;-72
2023/01/31 04:41:03;;;;;;;12.50;2.40;;;;;;;3.59;100.00;101938.81;4938551;28;20133;-72
2023/01/31 04:43:29;;;;;;;6.57;1.77;;;;;;;3.58;100.00;101937.91;4952101;28;20125;-72
2023/01/31 04:45:54;;;;;;;12.30;2.10;;;;;;;3.58;100.00;101930.06;4932552;28;20268;-73
2023/01/31 04:48:20;;;;;;;17.92;2.55;;;;;;;3.57;100.00;101933.56;4938190;28;20132;-73
2023/01/31 04:50:45;;;;;;;12.27;2.05;;;;;;;3.52;100.00;101937.91;4955434;28;20071;-73
2023/01/31 04:53:11;;;;;;;10.15;2.20;;;;;;;3.47;100.00;101940.53;4939159;28;20038;-72
2023/01/31 04:55:37;;;;;;;13.57;2.33;;;;;;;3.44;100.00;101935.28;4935483;28;20034;-72
2023/01/31 04:58:02;;;;;;;7.72;2.20;;;;;;;3.40;100.00;101934.38;4940438;28;20047;-73
2023/01/31 05:00:28;;;;;;;15.52;2.50;;;;;;;3.41;100.00;101930.03;4935803;28;20045;-72
2023/01/31 05:02:53;;;;;;;10.85;2.58;;;;;;;3.40;100.00;101934.38;4919712;28;20105;-72
2023/01/31 05:05:20;;;;;;;7.72;1.92;;;;;;;3.42;100.00;101930.91;4925064;28;20568;-73
2023/01/31 05:07:45;;;;;;;11.30;1.88;;;;;;;3.42;100.00;101930.91;4937474;28;20117;-72
2023/01/31 05:10:11;;;;;;;20.10;2.63;;;;;;;3.44;100.00;101918.69;4923008;28;20045;-72
2023/01/31 05:12:37;;;;;;;11.35;2.15;;;;;;;3.47;100.00;101918.69;4937293;28;20069;-72
2023/01/31 05:15:06;;;;;;;9.15;2.22;;;;;;;3.52;100.00;101909.09;4915903;28;20042;-73
2023/01/31 05:17:31;;;;;;;7.60;2.17;;;;;;;3.60;100.00;101904.72;4936853;28;20062;-72
2023/01/31 05:19:58;;;;;;;12.50;2.45;;;;;;;3.67;100.00;101903.88;4938485;28;20023;-72
2023/01/31 05:22:24;;;;;;;13.88;2.15;;;;;;;3.73;100.00;101904.75;4936347;28;20278;-73
2023/01/31 05:24:50;;;;;;;12.73;2.13;;;;;;;3.76;100.00;101897.75;4916895;28;20126;-72
2023/01/31 05:27:16;;;;;;;13.68;2.60;;;;;;;3.76;100.00;101892.53;4922908;28;20438;-72
2023/01/31 05:29:42;;;;;;;10.38;3.28;;;;;;;3.83;100.00;101889.91;4942903;28;20027;-72
2023/01/31 05:32:08;;;;;;;8.75;2.15;;;;;;;3.86;100.00;101890.78;4941526;28;20035;-72
2023/01/31 05:34:34;;;;;;;14.73;2.60;;;;;;;3.91;100.00;101893.38;4950469;28;20121;-72
2023/01/31 05:37:00;;;;;;;17.73;2.50;;;;;;;3.96;100.00;101880.31;4939324;28;20043;-72
2023/01/31 05:39:27;;;;;;;13.48;3.55;;;;;;;4.00;100.00;101882.91;4938155;28;20398;-72
2023/01/31 05:41:52;;;;;;;13.18;3.30;;;;;;;4.02;100.00;101868.06;4934661;28;20177;-72
2023/01/31 05:44:18;;;;;;;12.10;2.55;;;;;;;4.06;100.00;101863.69;4933728;28;20039;-72
2023/01/31 05:46:44;;;;;;;12.73;2.33;;;;;;;4.10;100.00;101868.03;4935134;28;20042;-72
2023/01/31 05:49:11;;;;;;;10.43;2.47;;;;;;;4.12;100.00;101853.19;4936089;28;20429;-72
2023/01/31 05:51:37;;;;;;;8.93;2.80;;;;;;;4.16;100.00;101851.44;4935272;28;20063;-72
2023/01/31 05:54:03;;;;;;;12.13;2.70;;;;;;;4.17;100.00;101855.78;4935456;28;20053;-72
2023/01/31 05:56:29;;;;;;;9.77;2.42;;;;;;;4.19;100.00;101847.03;4917642;28;20039;-72
2023/01/31 05:58:55;;;;;;;10.65;2.60;;;;;;;4.20;100.00;101848.78;4935638;28;20786;-72
2023/01/31 06:01:22;;;;;;;11.98;2.25;;;;;;;4.26;100.00;101855.78;4936556;28;20039;-72
2023/01/31 06:03:48;;;;;;;6.15;2.30;;;;;;;4.31;100.00;101842.66;4935499;28;20043;-72
2023/01/31 06:06:14;;;;;;;10.13;2.28;;;;;;;4.33;100.00;101849.63;4936383;28;20062;-73
2023/01/31 06:08:40;;;;;;;10.65;2.42;;;;;;;4.35;100.00;101842.63;4935246;28;20045;-73
2023/01/31 06:11:07;;;;;;;6.53;2.20;;;;;;;4.37;100.00;101839.13;4934448;28;20038;-73
2023/01/31 06:13:33;;;;;;;9.80;2.08;;;;;;;4.39;100.00;101838.25;4934892;28;20050;-72
2023/01/31 06:15:59;;;;;;;9.88;2.00;;;;;;;4.43;100.00;101834.75;4934788;28;20372;-72
2023/01/31 06:18:25;;;;;;;10.77;2.03;;;;;;;4.45;100.00;101832.09;4951736;28;20113;-72
2023/01/31 06:20:51;;;;;;;9.63;2.13;;;;;;;4.46;100.00;101826.84;4940085;28;20653;-72
2023/01/31 06:23:17;;;;;;;11.95;2.47;;;;;;;4.46;100.00;101819.00;4938073;28;20113;-73
2023/01/31 06:25:43;;;;;;;11.02;2.17;;;;;;;4.48;100.00;101832.97;4931186;28;20066;-73
2023/01/31 06:28:09;;;;;;;7.13;1.67;;;;;;;4.48;100.00;101830.34;4938251;28;20509;-73
2023/01/31 06:30:34;;;;;;;9.75;2.10;;;;;;;4.50;100.00;101830.34;4934403;28;20089;-72
2023/01/31 06:33:00;;;;;;;5.55;1.58;;;;;;;4.50;100.00;101809.34;4940023;28;20109;-73
2023/01/31 06:35:25;;;;;;;7.00;2.25;;;;;;;4.49;100.00;101807.63;4958626;28;21099;-73
2023/01/31 06:37:51;;;;;;;10.50;2.13;;;;;;;4.49;100.00;101797.97;4941169;28;20066;-73
2023/01/31 06:40:17;;;;;;;7.57;2.15;;;;;;;4.48;100.00;101798.88;4922357;28;20049;-73
2023/01/31 06:42:42;;;;;;;7.90;1.98;;;;;;;4.45;100.00;101800.63;4934420;28;20525;-73
2023/01/31 06:45:08;;;;;;;10.23;3.00;;;;;;;4.43;100.00;101799.78;4955550;28;20050;-73
2023/01/31 06:47:34;;;;;;;10.02;1.58;;;;;;;4.41;100.00;101784.03;4937491;28;20054;-73
2023/01/31 06:50:00;;;;;;;11.82;1.83;;;;;;;4.40;100.00;101784.91;4956373;28;20047;-72
2023/01/31 06:52:25;;;;;;;10.13;1.70;;;;;;;4.40;100.00;101781.44;4950744;28;20041;-72
2023/01/31 06:54:51;;;;;;;7.05;1.42;;;;;;;4.38;100.00;101775.31;4938436;28;20394;-72
2023/01/31 06:57:16;;;;;;;10.43;1.75;;;;;;;4.37;100.00;101781.44;4929821;28;20146;-72
2023/01/31 06:59:42;;;;;;;9.23;2.25;;;;;;;4.35;100.00;101757.84;4934830;28;20030;-72
2023/01/31 07:02:09;;;;;;;10.13;1.83;;;;;;;4.33;100.00;101768.34;4916481;28;20039;-72
2023/01/31 07:04:34;;;;;;;6.38;1.73;;;;;;;4.31;100.00;101764.84;4919723;28;20039;-72
2023/01/31 07:07:00;;;;;;;5.82;1.13;;;;;;;4.32;100.00;101776.22;4934553;28;20043;-72
2023/01/31 07:09:26;;;;;;;11.90;1.80;;;;;;;4.32;100.00;101769.22;4936785;28;20051;-72
2023/01/31 07:11:51;;;;;;;9.80;1.90;;;;;;;4.31;100.00;101770.09;4937319;28;20586;-72
2023/01/31 07:14:17;;;;;;;8.43;2.35;;;;;;;4.31;100.00;101764.00;4937974;28;20569;-72
2023/01/31 07:16:43;;;;;;;6.20;1.50;;;;;;;4.31;100.00;101764.00;4933681;28;20039;-73
2023/01/31 07:19:08;;;;;;;5.95;1.83;;;;;;;4.32;100.00;101752.63;4942078;28;20426;-74
2023/01/31 07:21:35;;;;;;;12.43;1.88;;;;;;;4.31;100.00;101764.00;4942507;28;20737;-73
2023/01/31 07:24:02;;;;;;;5.50;1.33;;;;;;;4.29;100.00;101765.72;4939693;28;20057;-73
2023/01/31 07:26:27;;;;;;;8.23;1.88;;;;;;;4.31;100.00;101784.97;4938442;28;20033;-73
2023/01/31 07:28:53;;;;;;;7.68;1.98;;;;;;;4.30;100.00;101770.13;4937641;28;21001;-73
2023/01/31 07:31:19;;;;;;;4.55;1.80;;;;;;;4.30;100.00;101764.88;4938189;28;20411;-74
2023/01/31 07:33:45;;;;;;;11.80;1.67;;;;;;;4.31;100.00;101782.34;4941959;28;20042;-74
2023/01/31 07:36:13;;;;;;;9.20;1.50;;;;;;;4.30;100.00;101797.19;4941846;28;20058;-73
2023/01/31 07:38:39;;;;;;;8.93;1.95;;;;;;;4.31;100.00;101808.56;4934270;28;20043;-73
2023/01/31 07:41:07;;;;;;;5.35;1.38;;;;;;;4.33;100.00;101793.69;4938730;28;20710;-74
2023/01/31 07:43:32;;;;;;;4.90;1.25;;;;;;;4.35;100.00;101789.31;4938684;28;21141;-73
2023/01/31 07:45:58;;;;;;;7.68;1.67;;;;;;;4.37;100.00;101784.06;4936570;28;20039;-73
2023/01/31 07:48:24;;;;;;;5.75;1.30;;;;;;;4.39;100.00;101783.19;4935292;28;20031;-73
2023/01/31 07:50:51;;;;;;;3.10;1.20;;;;;;;4.40;100.00;101777.06;4942651;28;20055;-73
2023/01/31 07:53:17;;;;;;;5.93;1.75;;;;;;;4.43;100.00;101779.69;4941854;28;20047;-73
2023/01/31 07:55:46;;;;;;;9.52;1.52;;;;;;;4.44;100.00;101776.16;4941976;28;20124;-74
2023/01/31 07:58:13;;;;;;;8.48;1.98;;;;;;;4.47;100.00;101763.03;4948079;28;20479;-73
2023/01/31 08:03:32;;;;;;;9.75;2.28;;;;;;;4.49;100.00;101761.25;4934341;28;20173;-73
2023/01/31 08:06:11;;;;;;;10.30;1.60;;;;;;;4.51;100.00;101755.16;4930283;28;20497;-73
2023/01/31 08:08:37;;;;;;;6.35;1.60;;;;;;;4.54;100.00;101752.50;4932901;28;20039;-73
2023/01/31 08:11:06;;;;;;;6.65;1.58;;;;;;;4.56;100.00;101746.38;4929761;28;20035;-74
2023/01/31 08:13:35;;;;;;;12.30;1.88;;;;;;;4.58;100.00;101744.59;4934352;28;20046;-73
2023/01/31 08:16:11;;;;;;;11.07;2.03;;;;;;;4.61;100.00;101738.47;4954306;28;20031;-73
2023/01/31 08:18:37;;;;;;;10.43;1.75;;;;;;;4.63;100.00;101736.69;4938438;28;20039;-73
2023/01/31 08:21:04;;;;;;;7.30;1.50;;;;;;;4.66;100.00;101739.31;4935783;28;20066;-73
2023/01/31 08:23:29;;;;;;;10.93;2.08;;;;;;;4.69;100.00;101733.19;4938616;28;20328;-73
2023/01/31 08:25:59;;;;;;;9.80;1.65;;;;;;;4.71;100.00;101723.56;4936991;28;20970;-73
2023/01/31 08:28:25;;;;;;;12.02;1.90;;;;;;;4.72;100.00;101725.28;4931112;28;20305;-73
2023/01/31 08:30:51;;;;;;;11.07;1.75;;;;;;;4.75;100.00;101736.63;4939494;28;20470;-73
2023/01/31 08:33:16;;;;;;;4.63;1.70;;;;;;;4.79;100.00;101728.75;4937139;28;20042;-74
2023/01/31 08:35:42;;;;;;;9.38;1.88;;;;;;;4.81;100.00;101714.75;4939990;28;20132;-73
2023/01/31 08:38:07;;;;;;;4.80;1.90;;;;;;;4.82;100.00;101706.00;4934327;28;20133;-73
2023/01/31 08:40:33;;;;;;;9.10;1.83;;;;;;;4.85;100.00;101711.19;4937463;28;20492;-74
2023/01/31 08:42:59;;;;;;;6.20;2.13;;;;;;;4.85;100.00;101705.94;4949620;28;20031;-73
2023/01/31 08:45:28;;;;;;;11.77;1.67;;;;;;;4.87;100.00;101705.94;4936228;28;20100;-73
2023/01/31 08:47:55;;;;;;;10.05;1.60;;;;;;;4.89;100.00;101701.56;4935752;28;20133;-73
2023/01/31 08:50:23;;;;;;;7.40;1.98;;;;;;;4.91;100.00;101689.31;4936975;28;20023;-73
2023/01/31 08:53:07;;;;;;;8.27;2.00;;;;;;;4.94;100.00;101694.53;4937637;28;20542;-73
2023/01/31 08:55:34;;;;;;;11.82;2.10;;;;;;;4.95;100.00;101696.25;4939322;28;20130;-73
2023/01/31 08:58:00;;;;;;;9.38;1.92;;;;;;;4.97;100.00;101698.88;4944925;28;20411;-74
2023/01/31 09:00:26;;;;;;;7.40;1.50;;;;;;;5.00;100.00;101694.47;4940705;28;20039;-73
2023/01/31 09:02:56;;;;;;;10.48;1.60;;;;;;;5.04;100.00;101684.81;4937311;28;20241;-74
2023/01/31 09:05:24;;;;;;;13.52;2.00;;;;;;;5.05;100.00;101685.69;4938126;28;20139;-73
2023/01/31 09:07:49;;;;;;;4.63;1.42;;;;;;;5.07;100.00;101694.41;4935846;28;20031;-73
2023/01/31 09:10:16;;;;;;;6.15;1.85;;;;;;;5.09;100.00;101682.13;4931469;28;20058;-73
2023/01/31 09:12:42;;;;;;;14.43;2.20;;;;;;;5.10;100.00;101676.00;4933851;28;20027;-74
2023/01/31 09:15:08;;;;;;;12.23;2.85;;;;;;;5.15;100.00;101671.59;4934689;28;20050;-72
2023/01/31 09:17:33;;;;;;;6.55;1.88;;;;;;;5.16;100.00;101670.69;4938576;28;20487;-73
2023/01/31 09:20:05;;;;;;;11.48;1.80;;;;;;;5.18;100.00;101666.31;4936180;28;20046;-73
2023/01/31 09:22:31;;;;;;;9.90;1.98;;;;;;;5.20;100.00;101663.66;4937687;28;20070;-73
2023/01/31 09:24:57;;;;;;;7.82;2.10;;;;;;;5.23;100.00;101666.28;4938026;28;20034;-73
2023/01/31 09:27:22;;;;;;;14.25;1.98;;;;;;;5.24;100.00;101655.72;4936094;28;20829;-72
2023/01/31 09:29:47;;;;;;;11.57;2.55;;;;;;;5.28;100.00;101654.81;4933389;28;20093;-73
2023/01/31 09:32:13;;;;;;;11.98;1.83;;;;;;;5.30;100.00;101654.81;4935154;28;20129;-73
2023/01/31 09:34:40;;;;;;;9.98;2.35;;;;;;;5.31;100.00;101651.31;4939152;28;20682;-73
2023/01/31 09:37:06;;;;;;;11.82;2.10;;;;;;;5.33;100.00;101654.78;4937814;28;20082;-72
2023/01/31 09:39:31;;;;;;;14.88;2.15;;;;;;;5.35;100.00;101654.78;4934939;28;20039;-73
2023/01/31 09:42:02;;;;;;;7.90;2.10;;;;;;;5.35;100.00;101653.03;4937626;28;20399;-74
2023/01/31 09:44:31;;;;;;;10.15;1.90;;;;;;;5.35;100.00;101653.03;4938727;28;20728;-74
2023/01/31 09:47:12;;;;;;;8.13;2.00;;;;;;;5.37;100.00;101660.88;4937472;28;20039;-73
2023/01/31 09:49:51;;;;;;;5.05;1.83;;;;;;;5.38;100.00;101659.97;4934831;28;20118;-72
2023/01/31 09:52:16;;;;;;;11.05;2.63;;;;;;;5.37;100.00;101660.88;4937150;28;20046;-72
2023/01/31 09:54:42;;;;;;;7.28;1.58;;;;;;;5.37;100.00;101671.38;4940630;28;20382;-74
2023/01/31 09:57:34;;;;;;;8.77;2.22;;;;;;;5.37;100.00;101661.75;4927297;28;20148;-73
2023/01/31 10:00:09;;;;;;;8.43;1.88;;;;;;;5.37;100.00;101671.38;4936696;28;20038;-73
2023/01/31 10:02:53;;;;;;;4.68;1.98;;;;;;;5.37;100.00;101666.13;4938991;28;21082;-73
2023/01/31 10:05:25;;;;;;;8.15;2.28;;;;;;;5.37;100.00;101679.25;4940277;28;20056;-73
2023/01/31 10:08:15;;;;;;;6.70;1.95;;;;;;;5.38;100.00;101673.09;4935724;28;20043;-73
2023/01/31 10:10:51;;;;;;;6.78;2.45;;;;;;;5.38;100.00;101675.72;4937442;28;20139;-73
2023/01/31 10:13:30;;;;;;;11.48;1.83;;;;;;;5.39;100.00;101669.63;4937687;28;20865;-73
2023/01/31 10:16:18;;;;;;;5.68;1.63;;;;;;;5.39;100.00;101675.72;4921428;28;20065;-73
2023/01/31 10:18:47;;;;;;;12.15;2.50;;;;;;;5.41;100.00;101675.72;4934013;28;20035;-73
2023/01/31 10:21:20;;;;;;;9.15;2.15;;;;;;;5.46;100.00;101691.41;4953552;28;20387;-73
2023/01/31 10:24:01;;;;;;;7.25;1.90;;;;;;;5.48;100.00;101674.75;4939940;28;20035;-73
2023/01/31 10:26:33;;;;;;;10.25;1.58;;;;;;;5.52;100.00;101681.72;4939712;28;20051;-73
2023/01/31 10:29:26;;;;;;;6.60;2.38;;;;;;;5.55;100.00;101686.06;4952742;28;20031;-73
2023/01/31 10:32:00;;;;;;;6.23;1.83;;;;;;;5.58;100.00;101686.03;4937598;28;20047;-73
2023/01/31 10:34:33;;;;;;;8.65;1.70;;;;;;;5.60;100.00;101692.13;4936627;28;20740;-73
2023/01/31 10:37:23;;;;;;;8.90;1.60;;;;;;;5.64;100.00;101680.72;4950296;28;20388;-73
2023/01/31 10:39:52;;;;;;;4.00;1.35;;;;;;;5.67;100.00;101675.41;4929620;28;20802;-73
2023/01/31 10:42:33;;;;;;;2.72;1.63;;;;;;;5.70;100.00;101679.75;4926262;28;20038;-73
2023/01/31 10:45:09;;;;;;;7.78;1.98;;;;;;;5.73;100.00;101677.13;4938696;28;20114;-73
2023/01/31 10:47:38;;;;;;;8.20;1.90;;;;;;;5.76;100.00;101674.44;4936131;28;20505;-73
2023/01/31 10:50:13;;;;;;;9.40;1.80;;;;;;;5.81;100.00;101661.25;4935195;28;20632;-73
2023/01/31 10:52:57;;;;;;;6.43;1.55;;;;;;;5.84;100.00;101671.72;4937337;28;20553;-73
2023/01/31 10:55:39;;;;;;;6.93;1.70;;;;;;;5.87;100.00;101670.81;4939832;28;20042;-73
2023/01/31 10:58:09;;;;;;;11.23;2.25;;;;;;;5.91;100.00;101667.25;4934477;28;20043;-73
2023/01/31 11:00:35;;;;;;;4.30;2.08;;;;;;;5.94;100.00;101673.34;4936737;28;20058;-73
2023/01/31 11:03:00;;;;;;;8.48;1.50;;;;;;;5.97;100.00;101654.03;4939358;28;20525;-73
2023/01/31 11:05:28;;;;;;;11.52;2.00;;;;;;;6.00;100.00;101651.38;4938923;28;20042;-73
2023/01/31 11:07:56;;;;;;;5.40;1.70;;;;;;;6.04;100.00;101639.94;4937676;28;20050;-73
2023/01/31 11:10:27;;;;;;;8.60;1.92;;;;;;;6.10;100.00;101645.13;4933419;28;20034;-74
2023/01/31 11:13:04;;;;;;;8.80;1.85;;;;;;;6.13;100.00;101638.06;4932048;28;20118;-74
2023/01/31 11:15:41;;;;;;;9.73;2.22;;;;;;;6.15;100.00;101642.44;4936679;28;20051;-73
2023/01/31 11:18:35;;;;;;;8.10;1.77;;;;;;;6.18;100.00;101634.50;4935227;28;20121;-73
2023/01/31 11:21:01;;;;;;;9.88;2.70;;;;;;;6.23;100.00;101639.69;4927416;28;20050;-73
2023/01/31 11:23:29;;;;;;;7.70;2.08;;;;;;;6.26;100.00;101634.38;4932215;28;20039;-73
2023/01/31 11:25:56;;;;;;;13.18;2.63;;;;;;;6.29;100.00;101631.72;4934759;28;20478;-73
2023/01/31 11:28:21;;;;;;;10.18;2.05;;;;;;;6.34;100.00;101637.78;4926186;28;20702;-73
2023/01/31 11:30:51;;;;;;;6.82;2.05;;;;;;;6.37;100.00;101629.84;4938655;28;20484;-73
2023/01/31 11:33:39;;;;;;;9.48;2.30;;;;;;;6.43;100.00;101606.97;4919582;28;20513;-73
2023/01/31 11:36:11;;;;;;;8.52;2.35;;;;;;;6.48;100.00;101605.16;4938478;28;20383;-73
2023/01/31 11:38:37;;;;;;;6.75;1.73;;;;;;;6.51;100.00;101600.69;4934711;28;20086;-74
2023/01/31 11:41:25;;;;;;;8.88;1.85;;;;;;;6.59;100.00;101616.34;4939752;28;20113;-74
2023/01/31 11:44:05;;;;;;;11.65;2.30;;;;;;;6.65;100.00;101603.09;4938343;28;21555;-74